VHCBA YBCG-YBCG
Flight info
| Callsign | VHCBA |
|---|---|
| Flight time | 0h 0m |
| Altitude | 1500 |
| Route | YBCG TOUR OF Q1 AND BACK |
| Aircraft | R44/L-SDGRY/C |
Departure
| Time | 2026-05-05 07:54 |
|---|---|
| Airport | Gold Coast Airport (YBCG) |
Arrival
| Time | 2026-05-05 07:55 |
|---|---|
| Airport | Gold Coast Airport (YBCG) |
| Time | Latitude | Longitude | Altitude | Speed | Heading |
|---|---|---|---|---|---|
| 2026-05-05 07:39 | -28.16126 | 153.50861 | 20 ft | 0 kts | 44° |
| 2026-05-05 07:46 | -28.16108 | 153.50877 | 69 ft | 13 kts | 342° |
| 2026-05-05 07:47 | -28.15873 | 153.50811 | 199 ft | 51 kts | 328° |
| 2026-05-05 07:47 | -28.15454 | 153.50671 | 248 ft | 79 kts | 332° |
| 2026-05-05 07:47 | -28.14903 | 153.50300 | 133 ft | 99 kts | 314° |
| 2026-05-05 07:47 | -28.14344 | 153.49860 | 127 ft | 97 kts | 319° |
| 2026-05-05 07:48 | -28.13763 | 153.49473 | 93 ft | 98 kts | 332° |
| 2026-05-05 07:48 | -28.13169 | 153.49125 | 101 ft | 93 kts | 333° |
| 2026-05-05 07:48 | -28.12591 | 153.48821 | 158 ft | 92 kts | 326° |
| 2026-05-05 07:48 | -28.12339 | 153.48129 | 139 ft | 97 kts | 301° |
| 2026-05-05 07:49 | -28.11843 | 153.47561 | 138 ft | 105 kts | 328° |
| 2026-05-05 07:49 | -28.11182 | 153.47211 | 225 ft | 102 kts | 339° |
| 2026-05-05 07:49 | -28.10514 | 153.46933 | 261 ft | 104 kts | 339° |
| 2026-05-05 07:49 | -28.09811 | 153.46644 | 207 ft | 113 kts | 335° |
| 2026-05-05 07:50 | -28.09132 | 153.46176 | 169 ft | 116 kts | 314° |
| 2026-05-05 07:50 | -28.08607 | 153.45506 | 163 ft | 114 kts | 317° |
| 2026-05-05 07:50 | -28.07918 | 153.45077 | 197 ft | 109 kts | 341° |
| 2026-05-05 07:50 | -28.07181 | 153.44859 | 167 ft | 112 kts | 343° |
| 2026-05-05 07:51 | -28.06429 | 153.44616 | 141 ft | 113 kts | 341° |
| 2026-05-05 07:51 | -28.05667 | 153.44391 | 131 ft | 112 kts | 346° |
| 2026-05-05 07:51 | -28.04931 | 153.44216 | 209 ft | 105 kts | 349° |
| 2026-05-05 07:51 | -28.04204 | 153.44113 | 269 ft | 103 kts | 355° |
| 2026-05-05 07:52 | -28.03484 | 153.44083 | 313 ft | 106 kts | 359° |
| 2026-05-05 07:52 | -28.02735 | 153.44057 | 360 ft | 108 kts | 358° |
| 2026-05-05 07:52 | -28.01978 | 153.44012 | 381 ft | 110 kts | 347° |
| 2026-05-05 07:52 | -28.01300 | 153.43593 | 427 ft | 110 kts | 318° |
| 2026-05-05 07:53 | -28.00831 | 153.42941 | 541 ft | 107 kts | 313° |
| 2026-05-05 07:53 | -28.00268 | 153.43203 | 507 ft | 104 kts | 49° |
| 2026-05-05 07:53 | -27.99719 | 153.42933 | 503 ft | 114 kts | 314° |
| 2026-05-05 07:53 | -27.99668 | 153.43123 | 274 ft | 105 kts | 178° |
| 2026-05-05 07:54 | -28.00316 | 153.43237 | 420 ft | 93 kts | 182° |
| 2026-05-05 07:54 | -28.00817 | 153.43069 | 637 ft | 56 kts | 254° |
| 2026-05-05 07:54 | -28.00621 | 153.42848 | 736 ft | 55 kts | 18° |
| 2026-05-05 07:54 | -28.00663 | 153.43252 | 155 ft | 116 kts | 161° |
| 2026-05-05 07:55 | -28.00511 | 153.43311 | 321 ft | 42 kts | 13° |
| 2026-05-05 07:55 | -28.00742 | 153.43311 | 276 ft | 88 kts | 171° |
| 2026-05-05 07:55 | -28.01426 | 153.43403 | 289 ft | 106 kts | 169° |
| 2026-05-05 07:55 | -28.01917 | 153.43488 | 277 ft | 114 kts | 170° |
| 2026-05-05 07:56 | -28.02951 | 153.43666 | 291 ft | 120 kts | 169° |
| 2026-05-05 07:56 | -28.03756 | 153.43800 | 289 ft | 115 kts | 171° |
| 2026-05-05 07:56 | -28.04581 | 153.43929 | 299 ft | 115 kts | 168° |
| 2026-05-05 07:56 | -28.05095 | 153.44079 | 334 ft | 114 kts | 162° |
| 2026-05-05 07:57 | -28.05826 | 153.44324 | 226 ft | 108 kts | 167° |
| 2026-05-05 07:57 | -28.06854 | 153.44558 | 59 ft | 123 kts | 156° |
| 2026-05-05 07:57 | -28.07400 | 153.44766 | 50 ft | 119 kts | 166° |
| 2026-05-05 07:57 | -28.08172 | 153.44992 | 61 ft | 121 kts | 155° |
| 2026-05-05 07:58 | -28.08789 | 153.45559 | 141 ft | 92 kts | 127° |
| 2026-05-05 07:58 | -28.09257 | 153.46132 | 82 ft | 108 kts | 153° |
| 2026-05-05 07:58 | -28.09943 | 153.46392 | 123 ft | 108 kts | 163° |
| 2026-05-05 07:58 | -28.10666 | 153.46697 | 139 ft | 114 kts | 158° |
| 2026-05-05 07:59 | -28.11417 | 153.47050 | 66 ft | 121 kts | 146° |
| 2026-05-05 07:59 | -28.12085 | 153.47613 | 34 ft | 120 kts | 124° |
| 2026-05-05 07:59 | -28.12521 | 153.47890 | 9 ft | 16 kts | 336° |
| 2026-05-05 07:59 | -28.12534 | 153.47864 | 20 ft | 8 kts | 146° |
| 2026-05-05 08:00 | -28.12632 | 153.48070 | 141 ft | 64 kts | 105° |
| 2026-05-05 08:00 | -28.12806 | 153.48643 | 194 ft | 90 kts | 114° |
| 2026-05-05 08:00 | -28.13326 | 153.49120 | 291 ft | 100 kts | 137° |
| 2026-05-05 08:00 | -28.13952 | 153.49483 | 429 ft | 105 kts | 148° |
| 2026-05-05 08:01 | -28.14628 | 153.49903 | 388 ft | 114 kts | 142° |
| 2026-05-05 08:01 | -28.15323 | 153.50332 | 317 ft | 112 kts | 143° |
| 2026-05-05 08:01 | -28.16048 | 153.50592 | 95 ft | 95 kts | 144° |
| 2026-05-05 08:01 | -28.16207 | 153.50819 | 72 ft | 2 kts | 25° |
| 2026-05-05 08:02 | -28.16172 | 153.50851 | 35 ft | 12 kts | 19° |
| 2026-05-05 08:02 | -28.16132 | 153.50856 | 24 ft | 1 kts | 52° |